Change the Weather History Date:

Wednesday, February 27, 2013

  Actual Average (KLAF) Record (KLAF)
Temperature  
Mean Temperature 32 °F 34 °F  
Max Temperature 33 °F 43 °F 70 °F (1976)
Min Temperature 32 °F 26 °F -6 °F (1993)
Degree Days  
Heating Degree Days 32 31  
Month to date heating degree days 934  
Since 1 July heating degree days 4302  
Cooling Degree Days 0 0  
Month to date cooling degree days 0  
Year to date cooling degree days 0  
Moisture  
Dew Point 32 °F    
Average Humidity 96    
Maximum Humidity 100    
Minimum Humidity 92    
Precipitation  
Precipitation 0.00 in 0.07 in 1.64 in (1999)
Month to date precipitation 1.68  
Year to date precipitation 3.54  
Sea Level Pressure  
Sea Level Pressure 29.60 in    
Wind  
Wind Speed 10 mph (West)    
Max Wind Speed 18 mph    
Max Gust Speed 23 mph    
Visibility 4 miles    
Events Fog , Rain , Snow    
T = Trace of Precipitation, MM = Missing Value Source: NWS Daily Summary

Daily Weather History Graph

Daily Weather History Graph

Search for Another Location

Airport or City:

Trip Planner

Search our weather history database for the weather conditions in past years. The results will help you decide how hot, cold, wet, or windy it might be!

Date:

Astronomy

Feb. 27, 2013 Rise Set
Actual Time 6:26 AM CST 5:40 PM CST
Civil Twilight 5:59 AM CST 6:07 PM CST
Nautical Twilight 5:27 AM CST 6:38 PM CST
Astronomical Twilight 4:56 AM CST 7:10 PM CST
Moon 8:01 PM CST (2/27) 7:01 AM CST (2/27)
Length of Visible Light 12h 08m
Length of Day
11h 13m
Waning Gibbous, 96% of the Moon is Illuminated
Feb 27
Waning Gibbous
Mar 4
Last Quarter
Mar 11
New
Mar 19
First Quarter
Mar 27
Full

Hourly Weather History & Observations

Time (CST) Temp. Windchill Dew Point Humidity Pressure Visibility Wind Dir Wind Speed Gust Speed Precip Events Conditions
12:15 AM 32.9 °F 26.7 °F 32.5 °F 99% 29.48 in 0.2 mi West 6.9 mph - N/A Fog Fog
12:35 AM 32.9 °F 28.5 °F 32.5 °F 99% 29.49 in 0.2 mi West 4.6 mph - N/A Fog Fog
12:55 AM 32.9 °F 29.8 °F 32.5 °F 99% 29.49 in 0.2 mi West 3.5 mph - N/A Rain Light Rain
1:15 AM 32.9 °F 27.5 °F 32.4 °F 98% 29.49 in 0.2 mi West 5.8 mph - N/A Fog Fog
1:35 AM 32.9 °F 26.7 °F 32.4 °F 98% 29.50 in 0.2 mi WSW 6.9 mph - N/A Fog Fog
1:55 AM 32.9 °F 25.3 °F 32.5 °F 99% 29.50 in 0.2 mi WSW 9.2 mph - N/A Fog Fog
2:15 AM 32.9 °F 25.3 °F 32.5 °F 99% 29.50 in 0.2 mi WSW 9.2 mph - N/A Fog Fog
2:35 AM 32.9 °F 24.7 °F 32.5 °F 99% 29.51 in 0.2 mi WSW 10.4 mph - N/A Fog Fog
2:55 AM 32.9 °F 24.1 °F 32.5 °F 99% 29.51 in 0.2 mi WSW 11.5 mph - N/A Fog Fog
3:15 AM 32.9 °F 23.7 °F 32.5 °F 99% 29.51 in 0.2 mi WSW 12.7 mph - N/A Fog Fog
3:35 AM 32.9 °F 23.7 °F 32.5 °F 99% 29.51 in 0.5 mi WSW 12.7 mph - N/A Fog Fog
3:55 AM 32.9 °F 24.1 °F 32.5 °F 99% 29.52 in 0.8 mi West 11.5 mph - N/A   Overcast
4:15 AM 32.9 °F 24.7 °F 32.5 °F 99% 29.53 in 0.8 mi West 10.4 mph 17.3 mph N/A   Overcast
4:35 AM 32.9 °F 24.7 °F 32.5 °F 99% 29.53 in 1.0 mi West 10.4 mph - N/A   Overcast
4:55 AM 32.9 °F 25.3 °F 32.4 °F 98% 29.53 in 1.0 mi West 9.2 mph - N/A   Overcast
5:15 AM 32.7 °F 24.5 °F 32.4 °F 99% 29.53 in 1.0 mi West 10.4 mph - N/A   Overcast
5:35 AM 32.0 °F 23.6 °F 32.0 °F 100% 29.54 in 1.0 mi WSW 10.4 mph - N/A   Overcast
5:55 AM 32.9 °F 24.7 °F 32.4 °F 98% 29.55 in 0.8 mi WSW 10.4 mph - N/A   Overcast
6:15 AM 32.7 °F 23.4 °F 32.4 °F 99% 29.55 in 0.8 mi WSW 12.7 mph - N/A   Overcast
6:35 AM 32.7 °F 23.9 °F 32.4 °F 99% 29.56 in 1.0 mi WSW 11.5 mph 17.3 mph N/A   Overcast
6:55 AM 32.7 °F 25.0 °F 32.4 °F 99% 29.56 in 0.8 mi WSW 9.2 mph - N/A   Overcast
7:15 AM 32.9 °F 24.7 °F 32.4 °F 98% 29.57 in 0.8 mi WSW 10.4 mph - N/A   Overcast
7:35 AM 32.9 °F 24.7 °F 32.4 °F 98% 29.58 in 1.0 mi WSW 10.4 mph - N/A   Overcast
7:55 AM 32.9 °F 25.3 °F 32.4 °F 98% 29.59 in 1.0 mi WSW 9.2 mph - N/A   Overcast
8:15 AM 32.7 °F 25.0 °F 32.4 °F 99% 29.59 in 1.5 mi WSW 9.2 mph - N/A Snow Light Snow
8:35 AM 32.5 °F 24.8 °F 32.2 °F 99% 29.59 in 1.5 mi WSW 9.2 mph - N/A Snow Light Snow
8:55 AM 32.5 °F 24.2 °F 32.2 °F 99% 29.59 in 1.8 mi WSW 10.4 mph - N/A Snow Light Snow
9:15 AM 32.0 °F 24.2 °F 32.0 °F 100% 29.59 in 1.8 mi WSW 9.2 mph - N/A Snow Light Snow
9:35 AM 32.9 °F 24.7 °F 32.5 °F 99% 29.59 in 2.0 mi SW 10.4 mph - N/A Snow Light Snow
9:55 AM 32.9 °F 23.7 °F 32.5 °F 99% 29.59 in 4.0 mi WSW 12.7 mph - N/A Snow Light Snow
10:15 AM 32.9 °F 24.7 °F 32.5 °F 99% 29.59 in 4.0 mi WSW 10.4 mph - N/A Snow Light Snow
10:35 AM 32.9 °F 23.7 °F 32.4 °F 98% 29.59 in 5.0 mi West 12.7 mph - N/A Snow Light Snow
10:55 AM 32.9 °F 23.7 °F 32.0 °F 96% 29.59 in 5.0 mi WSW 12.7 mph 17.3 mph N/A Snow Light Snow
11:15 AM 32.9 °F 22.0 °F 32.0 °F 96% 29.59 in 5.0 mi West 17.3 mph - N/A Snow Light Snow
11:35 AM 32.9 °F 22.8 °F 31.8 °F 96% 29.60 in 7.0 mi WSW 15.0 mph 18.4 mph N/A Snow Light Snow
11:55 AM 32.9 °F 23.2 °F 31.8 °F 96% 29.60 in 5.0 mi WSW 13.8 mph - N/A Snow Light Snow
12:15 PM 32.5 °F 22.3 °F 31.3 °F 95% 29.60 in 4.0 mi West 15.0 mph - N/A Snow Light Snow
12:35 PM 32.9 °F 22.8 °F 31.6 °F 95% 29.59 in 5.0 mi West 15.0 mph - N/A Snow Light Snow
12:55 PM 33.1 °F 23.4 °F 31.6 °F 94% 29.60 in 5.0 mi WSW 13.8 mph 18.4 mph N/A Snow Light Snow
1:15 PM 33.1 °F 23.0 °F 31.8 °F 95% 29.60 in 5.0 mi WSW 15.0 mph 18.4 mph N/A Snow Light Snow
1:35 PM 32.9 °F 23.2 °F 31.1 °F 93% 29.60 in 5.0 mi West 13.8 mph 19.6 mph N/A Snow Light Snow
1:55 PM 32.9 °F 23.2 °F 31.1 °F 93% 29.61 in 5.0 mi West 13.8 mph 21.9 mph N/A Snow Light Snow
2:15 PM 32.9 °F 22.0 °F 30.9 °F 92% 29.61 in 4.0 mi West 17.3 mph 20.7 mph N/A Snow Light Snow
2:35 PM 32.9 °F 22.8 °F 31.1 °F 93% 29.61 in 4.0 mi West 15.0 mph 19.6 mph N/A Snow Light Snow
2:55 PM 32.9 °F 22.4 °F 30.9 °F 92% 29.62 in 4.0 mi West 16.1 mph - N/A Snow Light Snow
3:15 PM 32.9 °F 23.7 °F 31.1 °F 93% 29.63 in 4.0 mi West 12.7 mph 18.4 mph N/A Snow Light Snow
3:35 PM 32.5 °F 22.3 °F 31.1 °F 94% 29.64 in 4.0 mi West 15.0 mph 18.4 mph N/A Snow Light Snow
3:55 PM 32.5 °F 22.3 °F 30.7 °F 93% 29.64 in 4.0 mi West 15.0 mph - N/A Snow Light Snow
4:15 PM 32.4 °F 22.5 °F 30.2 °F 92% 29.65 in 5.0 mi West 13.8 mph 19.6 mph N/A Snow Light Snow
4:35 PM 32.2 °F 22.3 °F 30.7 °F 94% 29.65 in 5.0 mi West 13.8 mph 18.4 mph N/A Snow Light Snow
4:55 PM 32.2 °F 22.3 °F 30.4 °F 93% 29.65 in 5.0 mi West 13.8 mph - N/A Snow Light Snow
5:15 PM 32.0 °F 22.1 °F 30.2 °F 93% 29.66 in 5.0 mi West 13.8 mph 19.6 mph N/A Snow Light Snow
5:35 PM 32.0 °F 22.5 °F 30.2 °F 93% 29.66 in 5.0 mi West 12.7 mph - N/A Snow Light Snow
5:55 PM 32.0 °F 22.5 °F 30.2 °F 93% 29.67 in 7.0 mi West 12.7 mph 18.4 mph N/A Snow Light Snow
6:15 PM 32.0 °F 22.5 °F 30.6 °F 94% 29.68 in 7.0 mi West 12.7 mph - N/A Snow Light Snow
6:35 PM 32.0 °F 22.1 °F 30.6 °F 94% 29.68 in 7.0 mi West 13.8 mph 20.7 mph N/A Snow Light Snow
6:55 PM 32.0 °F 22.5 °F 30.4 °F 94% 29.68 in 7.0 mi West 12.7 mph - N/A Snow Light Snow
7:15 PM 32.0 °F 22.1 °F 30.6 °F 94% 29.68 in 7.0 mi West 13.8 mph 18.4 mph N/A Snow Light Snow
7:35 PM 32.0 °F 22.1 °F 30.6 °F 94% 29.68 in 7.0 mi West 13.8 mph 19.6 mph N/A Snow Light Snow
7:55 PM 32.0 °F 22.5 °F 30.6 °F 94% 29.69 in 7.0 mi West 12.7 mph - N/A Snow Light Snow
8:15 PM 32.0 °F 20.5 °F 30.6 °F 94% 29.69 in 7.0 mi West 18.4 mph 23.0 mph N/A Snow Light Snow
8:35 PM 32.0 °F 21.6 °F 30.2 °F 93% 29.69 in 7.0 mi West 15.0 mph 20.7 mph N/A   Overcast
8:55 PM 32.2 °F 21.8 °F 30.7 °F 94% 29.69 in 10.0 mi West 15.0 mph - N/A   Overcast
9:15 PM 32.2 °F 22.7 °F 30.6 °F 94% 29.69 in 10.0 mi West 12.7 mph 20.7 mph N/A   Overcast
9:35 PM 32.4 °F 22.1 °F 30.6 °F 93% 29.69 in 10.0 mi West 15.0 mph - N/A   Overcast
9:55 PM 32.4 °F 22.5 °F 30.7 °F 94% 29.69 in 5.0 mi West 13.8 mph - N/A Snow Light Snow
10:15 PM 32.0 °F 22.5 °F 30.9 °F 96% 29.69 in 2.0 mi West 12.7 mph 19.6 mph N/A Snow Light Snow
10:35 PM 32.0 °F 22.5 °F 31.1 °F 96% 29.69 in 5.0 mi West 12.7 mph - N/A Snow Light Snow
11:15 PM 32.2 °F 23.8 °F 31.1 °F 96% 29.69 in 5.0 mi WNW 10.4 mph - N/A Snow Light Snow
11:35 PM 32.2 °F 24.4 °F 31.1 °F 96% 29.69 in 5.0 mi WNW 9.2 mph - N/A Snow Light Snow
11:55 PM 32.2 °F 24.4 °F 31.1 °F 96% 29.69 in 3.0 mi WNW 9.2 mph - N/A Snow Light Snow